Terminal Aerodrome Forecast
Issued by NWS Cleveland, OH

Home | Current Version | Previous Version | Text Only | Print | Product List | Glossary On
Versions: 1 2 3 4 5 6 7 8 9 10 11 12 13 14 15 16 17 18 19 20
000
FTUS41 KCLE 032335
TAFMFD
TAF
KMFD 032335Z 0400/0424 01006KT P6SM SCT050 OVC150
     FM040300 33003KT P6SM BKN200
      TEMPO 0410/0413 4SM BR
     FM041300 33006KT P6SM SCT200=

USA.gov is the U.S. government's official web portal to all federal, state and local government web resources and services.